Time;durP1;ratioP1;P1;durP2;ratioP2;P2;SDS_P1;SDS_P2;PMS_P1;PMS_P2;Temp;Humidity;BMP_temperature;BMP_pressure;BME280_temperature;BME280_humidity;BME280_pressure;Samples;Min_cycle;Max_cycle;Signal;HPM_P1;HPM_P2
2023/06/16 00:00:14;;;;;;;10.88;7.10;;;13.10;99.90;;;;;;5053439;28;20182;-82
2023/06/16 00:02:43;;;;;;;15.05;7.28;;;13.10;99.90;;;;;;5069656;28;20175;-82
2023/06/16 00:05:10;;;;;;;13.27;6.97;;;13.10;99.90;;;;;;5076583;28;20171;-81
2023/06/16 00:07:36;;;;;;;11.27;6.82;;;13.10;99.90;;;;;;5058730;28;20243;-81
2023/06/16 00:10:05;;;;;;;11.63;7.00;;;13.10;99.90;;;;;;5078898;28;20175;-81
2023/06/16 00:12:30;;;;;;;16.48;7.13;;;13.10;99.90;;;;;;5062369;28;20168;-81
2023/06/16 00:14:56;;;;;;;15.80;6.25;;;13.10;99.90;;;;;;5062633;28;20179;-82
2023/06/16 00:17:23;;;;;;;12.57;6.22;;;13.10;99.90;;;;;;5057267;28;20184;-82
2023/06/16 00:19:50;;;;;;;11.40;6.85;;;13.10;99.90;;;;;;5056901;28;20180;-83
2023/06/16 00:22:17;;;;;;;12.20;7.07;;;13.00;99.90;;;;;;5056965;28;20177;-82
2023/06/16 00:24:44;;;;;;;10.38;6.97;;;13.00;99.90;;;;;;5056452;28;20187;-82
2023/06/16 00:27:11;;;;;;;13.88;7.30;;;13.00;99.90;;;;;;5056449;28;20681;-83
2023/06/16 00:29:38;;;;;;;15.50;6.65;;;13.00;99.90;;;;;;5056330;28;20179;-82
2023/06/16 00:32:04;;;;;;;12.85;7.50;;;13.10;99.90;;;;;;5056727;28;20262;-83
2023/06/16 00:34:29;;;;;;;11.57;6.80;;;13.00;99.90;;;;;;5056646;28;20591;-82
2023/06/16 00:36:55;;;;;;;13.13;7.43;;;13.00;99.90;;;;;;5038729;28;20180;-82
2023/06/16 00:39:21;;;;;;;12.45;7.90;;;12.90;99.90;;;;;;5056389;28;20636;-82
2023/06/16 00:41:47;;;;;;;11.38;7.18;;;12.80;99.90;;;;;;5056188;28;20648;-82
2023/06/16 00:44:12;;;;;;;12.98;6.90;;;12.80;99.90;;;;;;5038231;28;20652;-82
2023/06/16 00:46:38;;;;;;;15.75;6.97;;;12.80;99.90;;;;;;5056194;28;20211;-82
2023/06/16 00:49:05;;;;;;;13.48;7.28;;;12.70;99.90;;;;;;5056331;28;20336;-82
2023/06/16 00:51:31;;;;;;;13.75;6.82;;;12.70;99.90;;;;;;5055781;28;20180;-81
2023/06/16 00:53:58;;;;;;;11.02;7.10;;;12.70;99.90;;;;;;5056020;28;20648;-84
2023/06/16 00:56:24;;;;;;;13.38;7.60;;;12.80;99.90;;;;;;5055897;28;20179;-85
2023/06/16 00:58:52;;;;;;;11.65;6.63;;;12.70;99.90;;;;;;5055670;28;20188;-83
2023/06/16 01:01:18;;;;;;;12.65;7.13;;;12.60;99.90;;;;;;5055823;28;20187;-83
2023/06/16 01:03:46;;;;;;;13.45;7.30;;;12.60;99.90;;;;;;5055328;28;20710;-83
2023/06/16 01:06:41;;;;;;;11.65;6.90;;;12.50;99.90;;;;;;5038052;28;20634;-82
2023/06/16 01:09:23;;;;;;;11.73;7.03;;;12.50;99.90;;;;;;5042353;28;20214;-81
2023/06/16 01:12:07;;;;;;;11.80;7.28;;;12.60;99.90;;;;;;5055701;28;20171;-81
2023/06/16 01:14:39;;;;;;;14.25;7.28;;;12.60;99.90;;;;;;5055699;28;20210;-81
2023/06/16 01:17:08;;;;;;;10.90;6.65;;;12.60;99.90;;;;;;5055614;28;20172;-82
2023/06/16 01:19:45;;;;;;;14.85;7.25;;;12.60;99.90;;;;;;5054887;28;20225;-81
2023/06/16 01:22:30;;;;;;;14.35;6.78;;;12.60;99.90;;;;;;5055582;28;20171;-82
2023/06/16 01:24:59;;;;;;;11.52;6.75;;;12.50;99.90;;;;;;5055267;28;20198;-82
2023/06/16 01:27:29;;;;;;;10.80;6.07;;;12.50;99.90;;;;;;5055386;28;20232;-82
2023/06/16 01:29:56;;;;;;;9.88;6.90;;;12.50;99.90;;;;;;5055022;28;20629;-83
2023/06/16 01:32:25;;;;;;;15.18;6.95;;;12.40;99.90;;;;;;5055224;28;20180;-83
2023/06/16 01:34:51;;;;;;;11.52;6.93;;;12.50;99.90;;;;;;5054761;28;20207;-82
2023/06/16 01:37:19;;;;;;;12.75;6.68;;;12.40;99.90;;;;;;5055201;28;20194;-82
2023/06/16 01:39:46;;;;;;;12.50;7.25;;;12.40;99.90;;;;;;5054998;28;20255;-81
2023/06/16 01:42:13;;;;;;;11.45;6.45;;;12.40;99.90;;;;;;5055372;28;20233;-82
2023/06/16 01:44:41;;;;;;;12.68;7.63;;;12.40;99.90;;;;;;5054855;28;20214;-81
2023/06/16 01:47:08;;;;;;;13.60;6.97;;;12.30;99.90;;;;;;5054851;28;20204;-82
2023/06/16 01:49:34;;;;;;;13.55;7.63;;;12.40;99.90;;;;;;5054995;28;20648;-82
2023/06/16 01:52:01;;;;;;;9.82;6.18;;;12.30;99.90;;;;;;5054648;28;20190;-82
2023/06/16 01:54:27;;;;;;;14.05;6.97;;;12.40;99.90;;;;;;5054818;28;20628;-82
2023/06/16 01:56:52;;;;;;;10.57;6.07;;;12.40;99.90;;;;;;5054535;28;20278;-82
2023/06/16 01:59:18;;;;;;;10.02;6.47;;;12.40;99.90;;;;;;5054788;28;20688;-82
2023/06/16 02:01:51;;;;;;;10.65;6.63;;;12.40;99.90;;;;;;5054488;28;20186;-82
2023/06/16 02:04:22;;;;;;;14.23;7.30;;;12.40;99.90;;;;;;5054583;28;20213;-82
2023/06/16 02:07:07;;;;;;;12.02;7.30;;;12.30;99.90;;;;;;5054613;28;20203;-82
2023/06/16 02:09:35;;;;;;;14.95;6.60;;;12.30;99.90;;;;;;5054691;28;20156;-82
2023/06/16 02:12:02;;;;;;;11.10;6.28;;;12.30;99.90;;;;;;5054201;28;20183;-82
2023/06/16 02:14:28;;;;;;;14.55;6.93;;;12.30;99.90;;;;;;5054091;28;20176;-82
2023/06/16 02:16:54;;;;;;;15.20;6.47;;;12.30;99.90;;;;;;5054098;28;20184;-82
2023/06/16 02:19:20;;;;;;;13.95;6.75;;;12.30;99.90;;;;;;5054280;28;20178;-82
2023/06/16 02:21:45;;;;;;;12.45;7.35;;;12.30;99.90;;;;;;5053760;28;20184;-82
2023/06/16 02:24:11;;;;;;;9.02;5.70;;;12.20;99.90;;;;;;5054215;28;20176;-82
2023/06/16 02:26:37;;;;;;;13.63;6.75;;;12.10;99.90;;;;;;5053777;28;20708;-83
2023/06/16 02:29:04;;;;;;;12.63;6.70;;;12.00;99.90;;;;;;5054029;28;20187;-82
2023/06/16 02:31:30;;;;;;;11.15;6.65;;;12.10;99.90;;;;;;5053415;28;20183;-82
2023/06/16 02:33:56;;;;;;;11.57;6.75;;;12.10;99.90;;;;;;5036159;28;20172;-82
2023/06/16 02:36:21;;;;;;;10.65;6.72;;;12.10;99.90;;;;;;5054171;28;20206;-82
2023/06/16 02:38:47;;;;;;;12.07;7.15;;;12.10;99.90;;;;;;5053715;28;20200;-82
2023/06/16 02:41:13;;;;;;;16.40;6.35;;;12.20;99.90;;;;;;5053938;28;20175;-82
2023/06/16 02:43:39;;;;;;;13.68;6.85;;;12.20;99.90;;;;;;5036130;28;20225;-82
2023/06/16 02:46:05;;;;;;;12.27;7.43;;;12.30;99.90;;;;;;5053647;28;20688;-82
2023/06/16 02:48:31;;;;;;;9.98;6.70;;;12.30;99.90;;;;;;5053777;28;20223;-83
2023/06/16 02:50:56;;;;;;;10.88;6.93;;;12.40;99.90;;;;;;5035774;28;20191;-83
2023/06/16 02:53:24;;;;;;;13.48;7.03;;;12.40;99.90;;;;;;5053706;28;20180;-83
2023/06/16 02:55:51;;;;;;;11.43;6.63;;;12.40;99.90;;;;;;5053504;28;20214;-82
2023/06/16 02:58:17;;;;;;;15.57;6.78;;;12.40;99.90;;;;;;5035913;28;20533;-83
2023/06/16 03:00:43;;;;;;;11.70;6.47;;;12.40;99.90;;;;;;5053331;28;20665;-83
2023/06/16 03:03:09;;;;;;;11.52;7.03;;;12.40;99.90;;;;;;5053587;28;20255;-83
2023/06/16 03:05:36;;;;;;;14.30;6.53;;;12.40;99.90;;;;;;5053514;28;20712;-83
2023/06/16 03:08:02;;;;;;;10.20;7.22;;;12.50;99.90;;;;;;5053338;28;20207;-83
2023/06/16 03:10:27;;;;;;;14.85;7.55;;;12.50;99.90;;;;;;5053790;28;20232;-82
2023/06/16 03:12:53;;;;;;;12.63;6.93;;;12.50;99.90;;;;;;5054757;28;20211;-81
2023/06/16 03:15:19;;;;;;;12.45;7.65;;;12.50;99.90;;;;;;5057576;28;20191;-83
2023/06/16 03:17:47;;;;;;;11.38;7.00;;;12.50;99.90;;;;;;5075321;28;20180;-83
2023/06/16 03:20:12;;;;;;;11.02;7.05;;;12.50;99.90;;;;;;5072491;28;20179;-84
2023/06/16 03:22:38;;;;;;;16.85;7.15;;;12.60;99.90;;;;;;5053952;28;20192;-83
2023/06/16 03:25:04;;;;;;;17.65;6.93;;;12.50;99.90;;;;;;5053757;28;20176;-83
2023/06/16 03:27:30;;;;;;;10.95;7.15;;;12.50;99.90;;;;;;5055413;28;20289;-83
2023/06/16 03:29:56;;;;;;;16.88;7.00;;;12.50;99.90;;;;;;5059045;28;20180;-84
2023/06/16 03:32:22;;;;;;;12.48;6.75;;;12.60;99.90;;;;;;5068747;28;20250;-84
2023/06/16 03:34:48;;;;;;;14.18;6.50;;;12.70;99.90;;;;;;5062486;28;20814;-80
2023/06/16 03:37:17;;;;;;;13.75;7.35;;;12.70;99.90;;;;;;5072002;28;20187;-83
2023/06/16 03:39:43;;;;;;;11.93;6.75;;;12.70;99.90;;;;;;5052370;28;20179;-82
2023/06/16 03:42:08;;;;;;;18.10;6.88;;;12.70;99.90;;;;;;5047367;28;20218;-81
2023/06/16 03:44:34;;;;;;;12.93;7.13;;;12.70;99.90;;;;;;5061871;28;20182;-82
2023/06/16 03:47:00;;;;;;;13.52;6.78;;;12.80;99.90;;;;;;5071996;28;20238;-82
2023/06/16 03:49:26;;;;;;;14.35;7.88;;;12.80;99.90;;;;;;5067202;28;20182;-81
2023/06/16 03:51:52;;;;;;;19.20;7.00;;;12.90;99.90;;;;;;5075637;28;20190;-83
2023/06/16 03:54:19;;;;;;;12.38;7.45;;;13.00;99.90;;;;;;5075565;28;20179;-83
2023/06/16 03:56:45;;;;;;;9.35;6.10;;;13.10;99.90;;;;;;5067624;28;20214;-83
2023/06/16 03:59:11;;;;;;;13.30;7.13;;;13.10;99.90;;;;;;5078407;28;20171;-80
2023/06/16 04:01:37;;;;;;;13.55;7.68;;;13.20;99.90;;;;;;5095044;28;20258;-81
2023/06/16 04:04:05;;;;;;;16.27;7.20;;;13.30;99.90;;;;;;5093368;28;20194;-82
2023/06/16 04:06:32;;;;;;;11.48;6.70;;;13.30;99.90;;;;;;5095216;28;20186;-82
2023/06/16 04:08:58;;;;;;;11.60;6.63;;;13.40;99.90;;;;;;5091001;28;20191;-82
2023/06/16 04:11:26;;;;;;;10.65;6.97;;;13.40;99.90;;;;;;5074849;28;20187;-82
2023/06/16 04:13:51;;;;;;;13.13;7.50;;;13.50;99.90;;;;;;5075049;28;20640;-81
2023/06/16 04:16:17;;;;;;;14.15;6.85;;;13.50;99.90;;;;;;5073638;28;20233;-81
2023/06/16 04:18:47;;;;;;;10.48;6.85;;;13.50;99.90;;;;;;5056541;28;20191;-81
2023/06/16 04:21:16;;;;;;;10.98;7.50;;;13.60;99.90;;;;;;5073710;28;20201;-81
2023/06/16 04:23:42;;;;;;;12.98;6.90;;;13.60;99.90;;;;;;5073743;28;20186;-81
2023/06/16 04:26:08;;;;;;;13.32;6.68;;;13.70;99.90;;;;;;5073744;28;20586;-81
2023/06/16 04:28:43;;;;;;;13.15;7.35;;;13.80;99.90;;;;;;5055958;28;20490;-82
2023/06/16 04:31:11;;;;;;;12.25;7.22;;;13.90;99.90;;;;;;5073069;28;20232;-81
2023/06/16 04:33:41;;;;;;;11.18;7.20;;;14.00;99.90;;;;;;5073214;28;20683;-81
2023/06/16 04:36:08;;;;;;;11.50;6.78;;;14.00;99.90;;;;;;5066024;28;20202;-82
2023/06/16 04:38:34;;;;;;;11.60;7.05;;;14.10;99.90;;;;;;5059929;28;20187;-81
2023/06/16 04:40:59;;;;;;;13.98;6.90;;;14.20;99.90;;;;;;5073443;28;20277;-82
2023/06/16 04:43:25;;;;;;;11.93;6.75;;;14.30;99.90;;;;;;5056281;28;20256;-82
2023/06/16 04:45:51;;;;;;;14.93;8.52;;;14.40;99.90;;;;;;5065429;28;20236;-81
2023/06/16 04:48:16;;;;;;;17.52;8.70;;;14.50;99.90;;;;;;5073565;28;20203;-82
2023/06/16 04:50:42;;;;;;;16.60;9.00;;;14.50;99.90;;;;;;5072940;28;20190;-82
2023/06/16 04:53:08;;;;;;;12.65;8.90;;;14.50;99.90;;;;;;5073665;28;20559;-81
2023/06/16 04:55:33;;;;;;;14.02;8.05;;;14.50;99.90;;;;;;5055619;28;20188;-83
2023/06/16 04:57:59;;;;;;;13.73;7.65;;;14.60;99.90;;;;;;5075237;28;20206;-81
2023/06/16 05:00:27;;;;;;;18.75;10.27;;;14.70;99.90;;;;;;5058055;28;20537;-82
2023/06/16 05:02:58;;;;;;;10.32;7.00;;;14.80;99.90;;;;;;5041813;28;20175;-83
2023/06/16 05:05:23;;;;;;;21.88;9.88;;;14.90;99.90;;;;;;5076164;28;20163;-83
2023/06/16 05:07:49;;;;;;;12.25;8.05;;;14.90;99.90;;;;;;5057745;28;20207;-88
2023/06/16 05:10:14;;;;;;;15.63;8.68;;;14.90;99.90;;;;;;5075281;28;20190;-88
2023/06/16 05:12:40;;;;;;;13.95;8.13;;;15.00;99.90;;;;;;5075875;28;20175;-88
2023/06/16 05:15:06;;;;;;;14.77;8.23;;;15.00;99.90;;;;;;5075847;28;20179;-88
2023/06/16 05:17:32;;;;;;;11.40;7.65;;;15.10;99.90;;;;;;5058838;28;20233;-90
2023/06/16 05:19:57;;;;;;;14.75;9.02;;;15.20;99.90;;;;;;5076155;28;20183;-88
2023/06/16 05:22:23;;;;;;;15.38;8.70;;;15.20;99.90;;;;;;5057424;28;20187;-88
2023/06/16 05:24:57;;;;;;;14.95;7.95;;;15.30;99.90;;;;;;5057722;28;20206;-87
2023/06/16 05:27:24;;;;;;;17.27;8.50;;;15.40;99.90;;;;;;5053691;28;20249;-88
2023/06/16 05:29:54;;;;;;;14.88;8.10;;;15.50;99.90;;;;;;5053943;28;20187;-88
2023/06/16 05:32:21;;;;;;;13.73;7.70;;;15.60;99.90;;;;;;5056425;28;20207;-88
2023/06/16 05:34:51;;;;;;;13.32;7.07;;;15.70;99.90;;;;;;5058530;28;20167;-88
2023/06/16 05:37:17;;;;;;;11.57;7.47;;;15.70;99.90;;;;;;5077945;28;20168;-86
2023/06/16 05:39:47;;;;;;;15.98;8.60;;;15.80;99.90;;;;;;5079191;28;20171;-85
2023/06/16 05:42:14;;;;;;;11.57;7.25;;;15.90;99.90;;;;;;5078392;28;20202;-85
2023/06/16 05:44:44;;;;;;;12.00;7.93;;;16.00;99.90;;;;;;5077716;28;20195;-87
2023/06/16 05:47:10;;;;;;;9.15;6.93;;;16.10;99.90;;;;;;5056973;28;20204;-87
2023/06/16 05:49:36;;;;;;;15.43;8.02;;;16.20;99.90;;;;;;5047506;28;20681;-84
2023/06/16 05:52:04;;;;;;;15.43;7.57;;;16.30;99.90;;;;;;5043428;28;20180;-85
2023/06/16 05:54:30;;;;;;;13.45;8.73;;;16.40;99.90;;;;;;5042780;28;20203;-86
2023/06/16 05:56:59;;;;;;;11.25;7.60;;;16.50;99.90;;;;;;5042197;28;20188;-86
2023/06/16 05:59:26;;;;;;;11.35;7.50;;;16.50;99.90;;;;;;5043907;28;20216;-85
2023/06/16 06:01:52;;;;;;;16.48;7.82;;;16.60;99.90;;;;;;5044340;28;20172;-86
2023/06/16 06:04:30;;;;;;;12.48;8.07;;;16.70;99.90;;;;;;5043262;28;20180;-85
2023/06/16 06:06:56;;;;;;;15.63;8.65;;;16.80;99.90;;;;;;5042057;28;20675;-85
2023/06/16 06:09:22;;;;;;;10.60;6.93;;;16.90;99.90;;;;;;5041901;28;20524;-84
2023/06/16 06:11:49;;;;;;;11.95;7.80;;;17.00;99.90;;;;;;5039818;28;20540;-85
2023/06/16 06:14:14;;;;;;;11.00;7.85;;;17.00;99.90;;;;;;5043495;28;20191;-85
2023/06/16 06:16:40;;;;;;;11.80;7.22;;;17.10;99.90;;;;;;5042617;28;20251;-85
2023/06/16 06:19:06;;;;;;;11.20;6.25;;;17.20;99.90;;;;;;5041319;28;20259;-86
2023/06/16 06:21:33;;;;;;;11.10;7.10;;;17.30;99.90;;;;;;5043693;28;20172;-86
2023/06/16 06:24:00;;;;;;;8.95;7.07;;;17.40;99.90;;;;;;5043967;28;20197;-86
2023/06/16 06:26:32;;;;;;;11.00;7.43;;;17.50;99.90;;;;;;5040265;28;20585;-85
2023/06/16 06:28:58;;;;;;;12.70;7.03;;;17.50;99.90;;;;;;5053995;28;20192;-85
2023/06/16 06:31:24;;;;;;;10.27;6.53;;;17.60;99.90;;;;;;5054105;28;20180;-85
2023/06/16 06:33:50;;;;;;;9.35;6.72;;;17.70;99.90;;;;;;5053905;28;20187;-86
2023/06/16 06:36:26;;;;;;;8.32;6.55;;;17.80;99.90;;;;;;5052356;28;20690;-84
2023/06/16 06:38:52;;;;;;;10.13;6.82;;;17.90;99.90;;;;;;5052614;28;20183;-85
2023/06/16 06:41:19;;;;;;;11.05;6.85;;;17.90;99.90;;;;;;5051522;28;20180;-86
2023/06/16 06:43:45;;;;;;;10.77;7.05;;;18.00;99.90;;;;;;5041522;28;20229;-85
2023/06/16 06:46:11;;;;;;;9.90;6.28;;;18.10;99.90;;;;;;5040950;28;20184;-84
2023/06/16 06:48:37;;;;;;;9.93;6.20;;;18.10;99.90;;;;;;5041605;28;20205;-85
2023/06/16 06:51:03;;;;;;;11.00;5.82;;;18.20;99.90;;;;;;5041747;28;20179;-85
2023/06/16 06:53:28;;;;;;;11.57;6.60;;;18.20;99.90;;;;;;5043465;28;20172;-85
2023/06/16 06:55:54;;;;;;;12.15;6.63;;;18.30;99.90;;;;;;5043801;28;20176;-84
2023/06/16 06:58:20;;;;;;;9.52;5.97;;;18.30;99.90;;;;;;5042834;28;20751;-85
2023/06/16 07:00:46;;;;;;;8.85;6.13;;;18.40;99.90;;;;;;5041776;28;20184;-84
2023/06/16 07:03:12;;;;;;;9.45;6.47;;;18.40;99.90;;;;;;5046019;28;20249;-82
2023/06/16 07:05:38;;;;;;;8.27;5.65;;;18.50;99.90;;;;;;5053236;28;20208;-85
2023/06/16 07:08:04;;;;;;;8.10;6.35;;;18.50;99.90;;;;;;5052869;28;20223;-84
2023/06/16 07:10:32;;;;;;;9.75;6.78;;;18.50;99.90;;;;;;5052574;28;20663;-85
2023/06/16 07:12:58;;;;;;;9.07;5.85;;;18.50;99.90;;;;;;5053065;28;20191;-85
2023/06/16 07:15:24;;;;;;;10.25;6.32;;;18.40;99.90;;;;;;5052939;28;20229;-86
2023/06/16 07:17:49;;;;;;;9.85;6.03;;;18.40;99.90;;;;;;5052813;28;20171;-86
2023/06/16 07:20:15;;;;;;;6.93;5.03;;;18.50;99.90;;;;;;5052963;28;20179;-85
2023/06/16 07:22:42;;;;;;;9.73;5.88;;;18.40;99.90;;;;;;5052800;28;20225;-88
2023/06/16 07:25:09;;;;;;;11.18;6.60;;;18.40;99.90;;;;;;5052594;28;20215;-84
2023/06/16 07:27:34;;;;;;;9.50;6.80;;;18.40;99.90;;;;;;5067780;28;20710;-84
2023/06/16 07:30:03;;;;;;;9.73;6.43;;;18.40;99.90;;;;;;5072372;28;20199;-85
2023/06/16 07:32:29;;;;;;;8.32;5.90;;;18.40;99.90;;;;;;5072590;28;20209;-85
2023/06/16 07:34:54;;;;;;;7.82;5.95;;;18.50;99.90;;;;;;5073113;28;20210;-85
2023/06/16 07:37:20;;;;;;;7.82;5.47;;;18.50;99.90;;;;;;5054593;28;20615;-85
2023/06/16 07:39:46;;;;;;;10.10;6.70;;;18.50;99.90;;;;;;5055583;28;20257;-84
2023/06/16 07:42:11;;;;;;;8.77;6.47;;;18.50;99.90;;;;;;5046107;28;20180;-84
2023/06/16 07:44:37;;;;;;;7.95;5.63;;;18.50;99.90;;;;;;5062309;28;20627;-85
2023/06/16 07:47:03;;;;;;;11.57;6.00;;;18.40;99.90;;;;;;5061847;28;20226;-85
2023/06/16 07:49:29;;;;;;;9.13;6.45;;;18.50;99.90;;;;;;5060944;28;20175;-84
2023/06/16 07:51:55;;;;;;;10.88;6.72;;;18.50;99.90;;;;;;5063000;28;20220;-84
2023/06/16 07:54:20;;;;;;;7.35;6.13;;;18.50;99.90;;;;;;5060071;28;20660;-84
2023/06/16 07:56:47;;;;;;;12.85;6.38;;;18.50;99.90;;;;;;5054901;28;20179;-85
2023/06/16 07:59:12;;;;;;;7.60;5.80;;;18.60;99.90;;;;;;5054697;28;20188;-85
2023/06/16 08:01:38;;;;;;;9.52;6.57;;;18.60;99.90;;;;;;5052860;28;20237;-85
2023/06/16 08:04:04;;;;;;;9.38;6.30;;;18.60;99.90;;;;;;5052549;28;20651;-86
2023/06/16 08:06:30;;;;;;;9.10;6.70;;;18.60;99.90;;;;;;5034966;28;20180;-85
2023/06/16 08:08:56;;;;;;;7.25;5.65;;;18.60;99.90;;;;;;5052794;28;20710;-86
2023/06/16 08:11:21;;;;;;;8.10;5.80;;;18.70;99.90;;;;;;5052823;28;20255;-85
2023/06/16 08:13:47;;;;;;;9.80;6.35;;;18.70;99.90;;;;;;5052907;28;20183;-86
2023/06/16 08:16:13;;;;;;;8.32;6.57;;;18.70;99.90;;;;;;5036057;28;20199;-85
2023/06/16 08:18:38;;;;;;;8.18;5.90;;;18.70;99.90;;;;;;5043887;28;20179;-84
2023/06/16 08:21:06;;;;;;;14.80;7.05;;;18.70;99.90;;;;;;5043665;28;20203;-85
2023/06/16 08:23:32;;;;;;;10.70;6.53;;;18.70;99.90;;;;;;5053917;28;20183;-85
2023/06/16 08:25:59;;;;;;;11.73;6.93;;;18.70;99.90;;;;;;5051717;28;20528;-84
2023/06/16 08:28:25;;;;;;;9.18;7.10;;;18.80;99.90;;;;;;5037571;28;20204;-85
2023/06/16 08:30:51;;;;;;;10.75;6.43;;;18.80;99.90;;;;;;5058930;28;20651;-85
2023/06/16 08:33:17;;;;;;;12.00;6.65;;;18.70;99.90;;;;;;5065395;28;20203;-85
2023/06/16 08:35:43;;;;;;;10.57;7.13;;;18.80;99.90;;;;;;5067878;28;20190;-85
2023/06/16 08:38:08;;;;;;;10.57;7.13;;;18.80;99.90;;;;;;5062260;28;20230;-85
2023/06/16 08:40:34;;;;;;;10.20;6.70;;;18.80;99.90;;;;;;5046618;28;20168;-85
2023/06/16 08:43:04;;;;;;;10.85;7.38;;;18.80;99.90;;;;;;5048198;28;20546;-85
2023/06/16 08:45:30;;;;;;;11.95;7.65;;;18.80;99.90;;;;;;5064748;28;20176;-86
2023/06/16 08:47:56;;;;;;;12.23;7.88;;;18.80;99.90;;;;;;5064123;28;20221;-85
2023/06/16 08:50:23;;;;;;;12.38;7.10;;;18.80;99.90;;;;;;5065930;28;20176;-87
2023/06/16 08:52:51;;;;;;;11.13;7.80;;;18.70;99.90;;;;;;5045816;28;20187;-87
2023/06/16 08:55:19;;;;;;;13.75;8.98;;;18.70;99.90;;;;;;5066213;28;20172;-86
2023/06/16 08:57:47;;;;;;;12.18;7.85;;;18.70;99.90;;;;;;5062736;28;20298;-85
2023/06/16 09:00:17;;;;;;;11.07;7.43;;;18.70;99.90;;;;;;5065083;28;20172;-86
2023/06/16 09:02:48;;;;;;;7.47;6.15;;;18.70;99.90;;;;;;5076491;28;20182;-85
2023/06/16 09:05:15;;;;;;;9.38;6.55;;;18.60;99.90;;;;;;5079601;28;20190;-84
2023/06/16 09:07:41;;;;;;;10.07;6.68;;;18.60;99.90;;;;;;5081088;28;20206;-84
2023/06/16 09:10:10;;;;;;;9.70;6.90;;;18.60;99.90;;;;;;5068555;28;20180;-86
2023/06/16 09:12:36;;;;;;;10.95;7.75;;;18.60;99.90;;;;;;5064252;28;20179;-84
2023/06/16 09:15:08;;;;;;;11.25;7.82;;;18.70;99.90;;;;;;5065905;28;20174;-85
2023/06/16 09:17:34;;;;;;;12.15;8.10;;;18.70;99.90;;;;;;5047163;28;20187;-87
2023/06/16 09:20:01;;;;;;;12.70;7.88;;;18.70;99.90;;;;;;5045987;28;20172;-87
2023/06/16 09:22:28;;;;;;;9.68;6.82;;;18.70;99.90;;;;;;5064158;28;20234;-83
2023/06/16 09:24:54;;;;;;;11.48;7.70;;;18.70;99.90;;;;;;5064445;28;20234;-87
2023/06/16 09:27:20;;;;;;;10.30;7.05;;;18.70;99.90;;;;;;5065137;28;20226;-88
2023/06/16 09:29:51;;;;;;;10.98;7.18;;;18.70;99.90;;;;;;5046365;28;20202;-88
2023/06/16 09:32:17;;;;;;;9.65;7.07;;;18.70;99.90;;;;;;5063850;28;20174;-88
2023/06/16 09:34:45;;;;;;;11.50;7.70;;;18.70;99.90;;;;;;5047506;28;20175;-87
2023/06/16 09:37:11;;;;;;;12.30;8.13;;;18.70;99.90;;;;;;5037982;28;20176;-84
2023/06/16 09:39:36;;;;;;;9.38;6.43;;;18.60;99.90;;;;;;5052828;28;20182;-85
2023/06/16 09:42:02;;;;;;;11.07;8.65;;;18.60;99.90;;;;;;5035215;28;20271;-85
2023/06/16 09:44:30;;;;;;;10.25;7.07;;;18.60;99.90;;;;;;5052799;28;20270;-85
2023/06/16 09:47:00;;;;;;;9.65;7.25;;;18.60;99.90;;;;;;5035629;28;20217;-84
2023/06/16 09:49:26;;;;;;;10.63;7.57;;;18.70;99.90;;;;;;5052887;28;20170;-85
2023/06/16 09:51:57;;;;;;;11.15;6.93;;;18.70;99.90;;;;;;5035149;28;20278;-85
2023/06/16 09:54:25;;;;;;;9.82;6.05;;;18.80;99.90;;;;;;5054527;28;20633;-87
2023/06/16 09:56:51;;;;;;;9.82;7.00;;;18.80;99.90;;;;;;5055019;28;20176;-86
2023/06/16 09:59:17;;;;;;;11.00;7.50;;;18.90;99.90;;;;;;5055254;28;20229;-86
2023/06/16 10:01:46;;;;;;;12.45;8.27;;;18.90;99.90;;;;;;5054961;28;20217;-87
2023/06/16 10:04:14;;;;;;;10.40;7.15;;;19.00;99.90;;;;;;5054667;28;20195;-86
2023/06/16 10:07:00;;;;;;;10.10;7.20;;;19.10;99.90;;;;;;5054534;28;20180;-86
2023/06/16 10:09:33;;;;;;;10.98;7.53;;;19.10;99.90;;;;;;5054522;28;20667;-86
2023/06/16 10:12:00;;;;;;;13.10;8.43;;;19.00;99.90;;;;;;5054395;28;20538;-86
2023/06/16 10:14:30;;;;;;;13.55;7.82;;;19.10;99.90;;;;;;5055121;28;20179;-87
2023/06/16 10:16:58;;;;;;;12.35;7.70;;;19.20;99.90;;;;;;5054592;28;20164;-87
2023/06/16 10:19:25;;;;;;;11.18;6.95;;;19.20;99.90;;;;;;5037191;28;20184;-86
2023/06/16 10:21:53;;;;;;;11.50;8.07;;;19.20;99.90;;;;;;5054287;28;20226;-85
2023/06/16 10:24:20;;;;;;;11.98;6.40;;;19.20;99.90;;;;;;5036664;28;20532;-86
2023/06/16 10:26:46;;;;;;;12.00;5.85;;;19.10;99.90;;;;;;5053969;28;20307;-85
2023/06/16 10:29:17;;;;;;;7.70;5.55;;;18.90;99.90;;;;;;5036981;28;20207;-86
2023/06/16 10:31:49;;;;;;;7.45;4.85;;;18.90;99.90;;;;;;5054136;28;20658;-85
2023/06/16 10:34:19;;;;;;;10.02;5.00;;;18.80;99.90;;;;;;5054086;28;20176;-86
2023/06/16 10:36:48;;;;;;;13.02;5.88;;;18.80;99.90;;;;;;5053953;28;20179;-88
2023/06/16 10:39:16;;;;;;;8.15;5.57;;;18.90;99.90;;;;;;5054216;28;20184;-86
2023/06/16 10:41:54;;;;;;;10.48;6.20;;;18.90;99.90;;;;;;5053863;28;20188;-86
2023/06/16 10:44:29;;;;;;;7.38;5.20;;;19.00;99.90;;;;;;5053797;28;20202;-88
2023/06/16 10:47:11;;;;;;;9.48;5.70;;;18.90;99.90;;;;;;5054633;28;20160;-87
2023/06/16 10:49:54;;;;;;;7.65;5.05;;;18.80;99.90;;;;;;5053545;28;20259;-85
2023/06/16 10:52:31;;;;;;;5.90;4.55;;;18.90;99.90;;;;;;5036562;28;20640;-88
2023/06/16 10:55:17;;;;;;;5.45;3.70;;;18.80;99.90;;;;;;5054104;28;20229;-87
2023/06/16 10:57:46;;;;;;;5.65;3.83;;;18.70;99.90;;;;;;5053522;28;20168;-86
2023/06/16 11:00:14;;;;;;;6.65;3.45;;;18.80;99.90;;;;;;5053849;28;20233;-86
2023/06/16 11:02:51;;;;;;;5.18;2.92;;;18.80;99.90;;;;;;5053677;28;20285;-85
2023/06/16 11:05:18;;;;;;;3.78;3.33;;;18.80;99.90;;;;;;5054015;28;20589;-86
2023/06/16 11:08:04;;;;;;;5.30;3.80;;;18.80;99.90;;;;;;5053433;28;20213;-86
2023/06/16 11:10:30;;;;;;;5.72;3.72;;;18.80;99.90;;;;;;5053753;28;20171;-86
2023/06/16 11:12:56;;;;;;;8.98;3.75;;;18.80;99.90;;;;;;5035635;28;20180;-86
2023/06/16 11:15:23;;;;;;;5.30;4.03;;;18.70;99.90;;;;;;5054405;28;20716;-87
2023/06/16 11:17:49;;;;;;;5.60;4.10;;;18.70;99.90;;;;;;5035697;28;20624;-87
2023/06/16 11:20:15;;;;;;;8.73;4.80;;;18.80;99.90;;;;;;5054140;28;20217;-87
2023/06/16 11:22:43;;;;;;;9.07;5.22;;;18.70;99.90;;;;;;5053344;28;20208;-83
2023/06/16 11:25:09;;;;;;;5.63;4.05;;;18.70;99.90;;;;;;5036624;28;20167;-88
2023/06/16 11:27:37;;;;;;;5.68;4.50;;;18.60;99.90;;;;;;5054584;28;20236;-87
2023/06/16 11:30:05;;;;;;;5.95;4.10;;;18.50;99.90;;;;;;5054265;28;20167;-88
2023/06/16 11:32:34;;;;;;;5.28;4.22;;;18.50;99.90;;;;;;5054431;28;20179;-87
2023/06/16 11:35:01;;;;;;;7.00;4.70;;;18.50;99.90;;;;;;5053462;28;20176;-88
2023/06/16 11:37:50;;;;;;;8.68;4.55;;;18.50;99.90;;;;;;5038998;28;20179;-87
2023/06/16 11:40:36;;;;;;;6.43;4.35;;;18.60;99.90;;;;;;5067856;28;20178;-86
2023/06/16 11:43:07;;;;;;;5.03;4.05;;;18.40;99.90;;;;;;5060525;28;20183;-88
2023/06/16 11:45:37;;;;;;;5.15;3.75;;;18.30;99.90;;;;;;5035317;28;20168;-88
2023/06/16 11:48:04;;;;;;;10.48;4.00;;;18.30;99.90;;;;;;5052984;28;20294;-86
2023/06/16 11:50:30;;;;;;;4.97;3.22;;;18.30;99.90;;;;;;5053027;28;20181;-87
2023/06/16 11:52:57;;;;;;;5.68;3.83;;;18.30;99.90;;;;;;5052648;28;20176;-86
2023/06/16 11:55:23;;;;;;;4.10;3.60;;;18.30;99.90;;;;;;5035137;28;20176;-87
2023/06/16 11:57:49;;;;;;;5.43;3.90;;;18.30;99.90;;;;;;5055092;28;20230;-86
2023/06/16 12:00:16;;;;;;;6.28;4.72;;;18.40;99.90;;;;;;5052830;28;20637;-86
2023/06/16 12:02:45;;;;;;;5.90;4.10;;;18.50;99.90;;;;;;5035407;28;20282;-86
2023/06/16 12:05:19;;;;;;;7.85;4.72;;;18.60;99.90;;;;;;5055251;28;20171;-88
2023/06/16 12:07:46;;;;;;;12.70;4.70;;;18.60;99.90;;;;;;5056714;28;20294;-87
2023/06/16 12:10:11;;;;;;;7.82;4.82;;;18.50;99.90;;;;;;5038725;28;20598;-87
2023/06/16 12:12:38;;;;;;;4.60;4.05;;;18.50;99.90;;;;;;5039190;28;20215;-88
2023/06/16 12:15:04;;;;;;;5.85;4.15;;;18.50;99.90;;;;;;5056552;28;20176;-87
2023/06/16 12:17:33;;;;;;;6.78;5.05;;;18.50;99.90;;;;;;5039025;28;20184;-88
2023/06/16 12:20:01;;;;;;;6.32;4.68;;;18.40;99.90;;;;;;5056175;28;20640;-87
2023/06/16 12:22:34;;;;;;;6.43;5.13;;;18.40;99.90;;;;;;5056613;28;20225;-88
2023/06/16 12:24:59;;;;;;;6.68;4.75;;;18.50;99.90;;;;;;5056333;28;20156;-87
2023/06/16 12:27:25;;;;;;;6.95;4.55;;;18.40;99.90;;;;;;5056548;28;20235;-88
2023/06/16 12:29:58;;;;;;;7.10;4.70;;;18.40;99.90;;;;;;5038313;28;20183;-87
2023/06/16 12:32:33;;;;;;;5.47;4.30;;;18.40;99.90;;;;;;5056127;28;20309;-88
2023/06/16 12:35:00;;;;;;;6.10;4.18;;;18.40;99.90;;;;;;5038166;28;20186;-88
2023/06/16 12:37:27;;;;;;;7.53;4.72;;;18.40;99.90;;;;;;5038632;28;20555;-87
2023/06/16 12:40:14;;;;;;;7.03;4.75;;;18.50;99.90;;;;;;5056817;28;20176;-86
2023/06/16 12:42:40;;;;;;;6.50;4.57;;;18.50;99.90;;;;;;5044179;28;20160;-89